Time;durP1;ratioP1;P1;durP2;ratioP2;P2;SDS_P1;SDS_P2;PMS_P1;PMS_P2;Temp;Humidity;BMP_temperature;BMP_pressure;BME280_temperature;BME280_humidity;BME280_pressure;Samples;Min_cycle;Max_cycle;Signal;HPM_P1;HPM_P2
2021/12/16 00:01:48;;;;;;;6.20;5.10;;;10.20;1.00;;;;;;5060726;28;20587;-59
2021/12/16 00:31:25;;;;;;;5.57;5.03;;;10.30;1.00;;;;;;5046475;28;20474;-58
2021/12/16 00:34:02;;;;;;;5.83;5.20;;;10.30;1.00;;;;;;5052318;28;20450;-60
2021/12/16 00:36:30;;;;;;;6.63;5.17;;;10.30;1.00;;;;;;5054559;28;20879;-58
2021/12/16 00:38:56;;;;;;;6.33;5.03;;;10.30;1.00;;;;;;5047162;28;20451;-58
2021/12/16 00:41:22;;;;;;;6.93;4.90;;;10.30;1.00;;;;;;5051496;28;20443;-59
2021/12/16 00:43:57;;;;;;;6.10;4.83;;;10.20;1.00;;;;;;5048115;28;20521;-57
2021/12/16 00:49:17;;;;;;;7.43;5.60;;;10.10;1.00;;;;;;5055642;28;20426;-59
2021/12/16 00:54:28;;;;;;;5.70;5.20;;;10.20;1.00;;;;;;5065059;28;20546;-57
2021/12/16 00:56:59;;;;;;;7.40;6.00;;;10.10;1.00;;;;;;5062156;28;20461;-58
2021/12/16 00:59:28;;;;;;;6.80;5.73;;;10.10;1.00;;;;;;5057997;28;20478;-59
2021/12/16 01:02:08;;;;;;;7.57;5.50;;;10.20;1.00;;;;;;5062020;28;20484;-58
2021/12/16 01:40:08;;;;;;;14.03;6.53;;;9.90;1.00;;;;;;5061884;28;20465;-58
2021/12/16 01:47:57;;;;;;;9.70;7.10;;;10.10;1.00;;;;;;5054751;28;20452;-58
2021/12/16 01:50:35;;;;;;;9.70;7.23;;;10.10;1.00;;;;;;5063669;28;20924;-58
2021/12/16 01:53:36;;;;;;;8.53;6.50;;;10.00;1.00;;;;;;5056380;28;20465;-58
2021/12/16 01:56:03;;;;;;;8.80;7.07;;;9.90;1.00;;;;;;5058571;28;20484;-59
2021/12/16 01:58:32;;;;;;;8.00;6.57;;;;;;;;;;5069460;28;20423;-58
2021/12/16 02:01:21;;;;;;;7.87;5.60;;;9.90;1.00;;;;;;5055023;28;20941;-58
2021/12/16 02:03:55;;;;;;;7.40;6.40;;;9.90;1.00;;;;;;5053968;28;20438;-57
2021/12/16 02:06:48;;;;;;;8.23;6.97;;;9.90;1.00;;;;;;5064689;28;20442;-58
2021/12/16 02:09:25;;;;;;;7.50;6.30;;;9.90;1.00;;;;;;5061546;28;20452;-59
2021/12/16 02:12:14;;;;;;;8.40;6.70;;;9.90;1.00;;;;;;5050753;28;20470;-59
2021/12/16 02:29:12;;;;;;;7.40;6.20;;;9.80;1.00;;;;;;5054637;28;20530;-58
2021/12/16 02:36:29;;;;;;;7.47;6.60;;;10.00;1.00;;;;;;5052386;28;20778;-58
2021/12/16 02:39:09;;;;;;;10.70;6.93;;;10.00;1.00;;;;;;5048995;28;20473;-58
2021/12/16 02:41:38;;;;;;;8.57;6.90;;;10.10;1.00;;;;;;5056897;28;20430;-58
2021/12/16 02:44:15;;;;;;;12.07;6.90;;;10.00;1.00;;;;;;5049505;28;20421;-60
2021/12/16 02:49:28;;;;;;;10.07;7.60;;;10.10;1.00;;;;;;5048690;28;20671;-59
2021/12/16 02:51:56;;;;;;;9.90;7.33;;;10.10;1.00;;;;;;5048215;28;20430;-60
2021/12/16 02:54:22;;;;;;;10.13;7.13;;;10.00;1.00;;;;;;5048818;28;20212;-59
2021/12/16 02:56:48;;;;;;;11.03;7.20;;;10.00;1.00;;;;;;5053753;28;20494;-58
2021/12/16 02:59:16;;;;;;;7.63;6.20;;;10.00;1.00;;;;;;5051676;28;20231;-58
2021/12/16 03:01:48;;;;;;;8.40;6.33;;;10.00;1.00;;;;;;5049313;28;20214;-58
2021/12/16 03:04:16;;;;;;;8.77;7.23;;;9.90;1.00;;;;;;5048953;28;20447;-57
2021/12/16 03:06:44;;;;;;;9.03;7.40;;;10.00;1.00;;;;;;5050928;28;20438;-58
2021/12/16 03:09:14;;;;;;;10.93;6.67;;;9.90;1.00;;;;;;5050008;28;20443;-59
2021/12/16 03:14:36;;;;;;;9.87;7.50;;;10.10;1.00;;;;;;5048914;28;21076;-59
2021/12/16 03:17:14;;;;;;;10.30;7.50;;;9.90;1.00;;;;;;5055844;28;20502;-59
2021/12/16 03:20:03;;;;;;;9.77;7.23;;;9.90;1.00;;;;;;5056673;28;20851;-59
2021/12/16 03:25:32;;;;;;;9.90;8.47;;;9.80;1.00;;;;;;5042666;28;20422;-59
2021/12/16 03:30:50;;;;;;;14.47;8.37;;;10.00;1.00;;;;;;5049213;28;20510;-57
2021/12/16 03:38:39;;;;;;;13.53;8.83;;;9.70;1.00;;;;;;5044908;28;20462;-59
2021/12/16 03:41:06;;;;;;;15.03;9.53;;;9.80;1.00;;;;;;5047810;28;20458;-57
2021/12/16 03:43:33;;;;;;;13.00;9.73;;;9.80;1.00;;;;;;5057606;28;20456;-58
2021/12/16 03:49:06;;;;;;;12.70;9.17;;;9.80;1.00;;;;;;5049058;28;20918;-58
2021/12/16 03:51:32;;;;;;;15.97;11.13;;;;;;;;;;5051885;28;20517;-58
2021/12/16 03:54:05;;;;;;;14.30;10.70;;;9.70;1.00;;;;;;5056458;28;20520;-59
2021/12/16 03:56:31;;;;;;;17.70;11.77;;;9.60;1.00;;;;;;5043771;28;20914;-58
2021/12/16 03:58:57;;;;;;;13.80;9.97;;;9.60;1.00;;;;;;5042997;28;20443;-59
2021/12/16 04:01:25;;;;;;;17.33;12.07;;;9.70;1.00;;;;;;5050219;28;20417;-58
2021/12/16 04:03:51;;;;;;;18.33;11.73;;;9.70;1.00;;;;;;5049194;28;20450;-60
2021/12/16 04:06:19;;;;;;;20.23;11.73;;;9.70;1.00;;;;;;5060773;28;21092;-58
2021/12/16 04:08:45;;;;;;;17.30;11.57;;;9.60;1.00;;;;;;5048218;28;20447;-60
2021/12/16 04:11:20;;;;;;;17.10;10.90;;;9.60;1.00;;;;;;5048982;28;20497;-58
2021/12/16 04:13:57;;;;;;;17.67;11.77;;;9.70;1.00;;;;;;5055278;28;20245;-58
2021/12/16 04:16:27;;;;;;;17.30;11.80;;;9.80;1.00;;;;;;5057360;28;20761;-58
2021/12/16 04:18:53;;;;;;;15.33;11.07;;;9.80;1.00;;;;;;5048402;28;20542;-59
2021/12/16 04:21:19;;;;;;;17.93;12.23;;;9.90;1.00;;;;;;5053716;28;20526;-60
2021/12/16 04:23:47;;;;;;;22.70;13.43;;;10.00;1.00;;;;;;5046687;28;20188;-57
2021/12/16 04:26:15;;;;;;;18.00;12.73;;;10.00;1.00;;;;;;5049635;28;20455;-57
2021/12/16 04:28:42;;;;;;;20.03;13.17;;;9.90;1.00;;;;;;5052278;28;20975;-58
2021/12/16 04:31:08;;;;;;;21.33;13.10;;;9.90;1.00;;;;;;5048424;28;20451;-59
2021/12/16 04:33:36;;;;;;;21.83;13.77;;;9.80;1.00;;;;;;5061868;28;20549;-59
2021/12/16 04:36:01;;;;;;;22.63;15.00;;;9.80;1.00;;;;;;5043398;28;20562;-59
2021/12/16 04:38:27;;;;;;;24.20;13.87;;;9.70;5.60;;;;;;5059608;28;20446;-58
2021/12/16 04:40:53;;;;;;;23.80;14.33;;;9.80;7.50;;;;;;5045061;28;20188;-60
2021/12/16 04:43:21;;;;;;;19.50;13.67;;;9.80;7.30;;;;;;5048590;28;20217;-60
2021/12/16 04:45:48;;;;;;;26.50;15.00;;;9.90;3.20;;;;;;5044030;28;20188;-58
2021/12/16 04:48:14;;;;;;;23.47;16.17;;;9.70;11.60;;;;;;5050882;28;20441;-58
2021/12/16 04:50:40;;;;;;;25.10;14.53;;;9.60;19.90;;;;;;5048006;28;20978;-58
2021/12/16 04:53:06;;;;;;;24.57;15.90;;;9.80;19.50;;;;;;5050299;28;20692;-58
2021/12/16 04:55:32;;;;;;;26.10;15.13;;;;;;;;;;5052382;28;20533;-58
2021/12/16 04:57:57;;;;;;;28.40;16.43;;;9.90;14.00;;;;;;5048483;28;20650;-58
2021/12/16 05:00:24;;;;;;;27.50;16.80;;;9.80;17.40;;;;;;5049131;28;20967;-58
2021/12/16 05:02:51;;;;;;;26.10;16.33;;;9.80;18.10;;;;;;5057053;28;20654;-59
2021/12/16 05:05:17;;;;;;;22.40;15.50;;;9.80;19.90;;;;;;5049886;28;20447;-56
2021/12/16 05:07:47;;;;;;;25.97;15.60;;;9.70;25.10;;;;;;5053957;28;20439;-57
2021/12/16 05:10:14;;;;;;;25.33;15.90;;;9.70;32.70;;;;;;5058870;28;20442;-57
2021/12/16 05:12:45;;;;;;;23.73;16.37;;;9.60;50.00;;;;;;5056128;28;20477;-57
2021/12/16 05:15:16;;;;;;;23.67;16.33;;;9.50;82.30;;;;;;5056231;28;20443;-56
2021/12/16 05:17:45;;;;;;;21.03;14.77;;;9.50;92.90;;;;;;5049334;28;20977;-57
2021/12/16 05:20:21;;;;;;;26.00;16.57;;;9.60;92.70;;;;;;5047954;28;20436;-57
2021/12/16 05:25:54;;;;;;;26.00;16.40;;;;;;;;;;5049134;28;20484;-59
2021/12/16 05:28:22;;;;;;;30.13;16.90;;;9.80;79.30;;;;;;5045792;28;20439;-57
2021/12/16 05:30:48;;;;;;;23.43;15.80;;;9.70;77.40;;;;;;5049258;28;20928;-59
2021/12/16 05:33:15;;;;;;;26.90;15.43;;;9.80;79.70;;;;;;5048769;28;20437;-57
2021/12/16 05:35:41;;;;;;;27.20;16.73;;;9.70;82.80;;;;;;5050901;28;20438;-59
2021/12/16 05:38:07;;;;;;;25.27;16.20;;;9.80;84.80;;;;;;5059325;28;20848;-58
2021/12/16 05:40:33;;;;;;;27.40;16.57;;;9.70;84.20;;;;;;5052230;28;20484;-60
2021/12/16 05:43:04;;;;;;;26.73;15.77;;;9.80;75.60;;;;;;5052207;28;20812;-57
2021/12/16 05:45:30;;;;;;;28.47;16.53;;;9.90;63.40;;;;;;5052652;28;21006;-59
2021/12/16 05:47:59;;;;;;;23.03;15.47;;;9.90;61.40;;;;;;5053055;28;20966;-58
2021/12/16 05:50:26;;;;;;;29.77;17.33;;;9.90;61.00;;;;;;5055870;28;20438;-60
2021/12/16 05:52:51;;;;;;;29.83;16.87;;;10.00;54.20;;;;;;5057851;28;20536;-58
2021/12/16 05:55:18;;;;;;;26.73;16.70;;;10.00;46.30;;;;;;5052785;28;20966;-58
2021/12/16 05:57:44;;;;;;;22.33;14.80;;;;;;;;;;5054210;28;20315;-59
2021/12/16 06:00:15;;;;;;;24.10;16.30;;;9.90;48.30;;;;;;5052941;28;20406;-61
2021/12/16 06:02:41;;;;;;;21.60;15.43;;;9.80;50.50;;;;;;5050616;28;20447;-58
2021/12/16 06:05:07;;;;;;;23.10;14.37;;;9.90;47.90;;;;;;5062880;28;20811;-60
2021/12/16 06:07:33;;;;;;;25.90;16.87;;;9.90;55.60;;;;;;5056806;28;20965;-57
2021/12/16 06:09:59;;;;;;;20.20;14.57;;;9.80;54.70;;;;;;5055746;28;20431;-58
2021/12/16 06:12:25;;;;;;;26.10;15.40;;;9.90;55.50;;;;;;5055525;28;20204;-58
2021/12/16 06:28:14;;;;;;;26.33;15.53;;;9.80;53.10;;;;;;5072124;28;20815;-57
2021/12/16 06:30:43;;;;;;;23.83;14.80;;;9.80;50.50;;;;;;5059743;28;20450;-58
2021/12/16 06:33:12;;;;;;;26.50;15.83;;;9.90;51.00;;;;;;5053984;28;20693;-58
2021/12/16 06:35:38;;;;;;;27.30;17.80;;;9.90;47.30;;;;;;5056398;28;20422;-58
2021/12/16 06:38:05;;;;;;;22.60;15.30;;;9.90;50.60;;;;;;5063388;28;20994;-58
2021/12/16 06:40:31;;;;;;;28.63;16.87;;;9.90;44.50;;;;;;5051208;28;20420;-57
2021/12/16 06:42:59;;;;;;;24.63;16.10;;;9.80;49.30;;;;;;5060719;28;20430;-58
2021/12/16 06:45:29;;;;;;;25.73;16.20;;;9.80;50.50;;;;;;5051819;28;20761;-58
2021/12/16 06:48:02;;;;;;;21.60;13.60;;;9.90;47.00;;;;;;5066873;28;20780;-57
2021/12/16 06:50:44;;;;;;;23.83;15.17;;;9.90;42.80;;;;;;5055525;28;20482;-58
2021/12/16 06:53:13;;;;;;;27.10;16.87;;;9.80;47.90;;;;;;5056536;28;20783;-58
2021/12/16 06:55:50;;;;;;;21.73;15.43;;;9.90;45.30;;;;;;5050471;28;20468;-56
2021/12/16 06:58:27;;;;;;;23.20;16.60;;;9.80;40.60;;;;;;5054384;28;20495;-60
2021/12/16 07:01:05;;;;;;;24.00;14.50;;;9.60;45.10;;;;;;5066009;28;20784;-57
2021/12/16 07:03:44;;;;;;;22.40;15.23;;;9.70;44.00;;;;;;5057147;28;20504;-58
2021/12/16 07:06:10;;;;;;;23.83;15.93;;;9.80;41.10;;;;;;5054327;28;20783;-58
2021/12/16 07:08:35;;;;;;;23.40;15.50;;;9.80;45.30;;;;;;5062401;28;20435;-57
2021/12/16 07:11:01;;;;;;;26.53;15.87;;;9.90;43.60;;;;;;5068087;28;20196;-56
2021/12/16 07:13:55;;;;;;;27.07;17.07;;;9.90;30.30;;;;;;5055964;28;20200;-57
2021/12/16 07:16:15;;;;;;;24.70;15.30;;;9.90;34.70;;;;;;5058824;28;20287;-57
2021/12/16 07:18:40;;;;;;;24.97;15.60;;;9.90;37.70;;;;;;5058616;28;20533;-57
2021/12/16 07:21:07;;;;;;;27.60;16.57;;;10.00;33.40;;;;;;5068334;28;20238;-58
2021/12/16 07:23:33;;;;;;;23.23;15.70;;;10.00;34.40;;;;;;5067987;28;20216;-58
2021/12/16 07:25:59;;;;;;;21.27;15.20;;;10.10;24.90;;;;;;5054534;28;20859;-58
2021/12/16 07:28:26;;;;;;;23.77;15.60;;;10.00;23.30;;;;;;5058224;28;20501;-57
2021/12/16 07:30:52;;;;;;;27.40;16.97;;;10.00;23.80;;;;;;5057470;28;20181;-58
2021/12/16 07:33:18;;;;;;;21.23;14.13;;;9.90;26.90;;;;;;5060760;28;20516;-58
2021/12/16 07:35:45;;;;;;;26.80;18.03;;;10.00;25.60;;;;;;5053521;28;20571;-57
2021/12/16 07:38:11;;;;;;;24.80;17.83;;;10.00;21.00;;;;;;5050854;28;20169;-59
2021/12/16 07:40:39;;;;;;;33.77;18.90;;;10.10;22.30;;;;;;5051458;28;20493;-58
2021/12/16 07:45:45;;;;;;;29.10;16.80;;;10.10;16.10;;;;;;5058101;28;20447;-57
2021/12/16 07:48:14;;;;;;;25.97;16.23;;;10.20;15.70;;;;;;5052968;28;20454;-57
2021/12/16 07:50:44;;;;;;;28.17;16.80;;;10.10;17.90;;;;;;5057848;28;20417;-58
2021/12/16 07:53:09;;;;;;;29.13;17.50;;;10.00;22.80;;;;;;5056871;28;20444;-57
2021/12/16 07:55:36;;;;;;;29.17;18.73;;;9.90;33.90;;;;;;5050758;28;20421;-57
2021/12/16 07:58:03;;;;;;;29.40;18.83;;;10.00;35.90;;;;;;5049357;28;20343;-58
2021/12/16 08:00:33;;;;;;;28.07;18.13;;;9.90;38.50;;;;;;5065550;28;20446;-57
2021/12/16 08:03:00;;;;;;;29.77;17.60;;;9.90;37.20;;;;;;5048534;28;20515;-59
2021/12/16 08:05:27;;;;;;;32.20;19.20;;;9.90;40.10;;;;;;5053778;28;20981;-58
2021/12/16 08:07:53;;;;;;;32.43;20.23;;;9.90;45.40;;;;;;5054786;28;20443;-58
2021/12/16 08:10:22;;;;;;;31.43;20.77;;;9.80;57.50;;;;;;5050423;28;20528;-57
2021/12/16 08:12:49;;;;;;;29.80;18.00;;;9.90;62.30;;;;;;5057276;28;20218;-58
2021/12/16 08:15:16;;;;;;;33.90;20.03;;;9.60;83.60;;;;;;5054862;28;20956;-60
2021/12/16 08:17:43;;;;;;;31.17;19.77;;;9.60;92.90;;;;;;5054985;28;20429;-58
2021/12/16 08:20:11;;;;;;;32.40;19.20;;;9.70;97.20;;;;;;5070991;28;20426;-58
2021/12/16 08:22:37;;;;;;;34.07;19.97;;;9.60;99.90;;;;;;5065343;28;20627;-57
2021/12/16 08:25:04;;;;;;;33.17;20.10;;;9.60;99.90;;;;;;5059521;28;20847;-59
2021/12/16 08:27:33;;;;;;;39.50;20.90;;;9.60;99.90;;;;;;5050207;28;20475;-58
2021/12/16 08:29:59;;;;;;;31.80;19.27;;;9.70;99.90;;;;;;5057047;28;20473;-58
2021/12/16 08:32:25;;;;;;;37.03;22.10;;;9.50;99.90;;;;;;5052809;28;20822;-57
2021/12/16 08:34:50;;;;;;;34.77;18.90;;;9.60;99.90;;;;;;5065540;28;20442;-57
2021/12/16 08:37:16;;;;;;;32.13;18.40;;;9.60;99.90;;;;;;5059399;28;20175;-58
2021/12/16 08:39:44;;;;;;;38.20;22.40;;;9.60;99.90;;;;;;5057774;28;20188;-58
2021/12/16 08:42:11;;;;;;;31.93;19.90;;;9.60;99.90;;;;;;5060230;28;20175;-58
2021/12/16 08:44:37;;;;;;;33.53;20.90;;;9.60;99.90;;;;;;5050432;28;20479;-59
2021/12/16 08:47:07;;;;;;;34.80;22.10;;;9.60;99.90;;;;;;5062577;28;20449;-58
2021/12/16 08:49:33;;;;;;;31.03;19.90;;;9.70;99.90;;;;;;5053612;28;20526;-58
2021/12/16 08:52:04;;;;;;;40.73;21.90;;;9.70;99.90;;;;;;5061725;28;20462;-59
2021/12/16 08:54:30;;;;;;;33.57;19.90;;;;;;;;;;5049651;28;20417;-57
2021/12/16 08:56:56;;;;;;;32.07;20.70;;;9.70;99.90;;;;;;5054886;28;20901;-58
2021/12/16 08:59:24;;;;;;;32.00;20.83;;;;;;;;;;5066441;28;20455;-57
2021/12/16 09:01:54;;;;;;;34.23;19.93;;;9.90;99.90;;;;;;5062054;28;20421;-59
2021/12/16 09:04:23;;;;;;;37.50;20.07;;;9.80;99.90;;;;;;5063293;28;20426;-57
2021/12/16 09:06:50;;;;;;;33.67;18.63;;;9.80;99.90;;;;;;5056133;28;20438;-59
2021/12/16 09:09:15;;;;;;;38.07;21.23;;;9.90;99.90;;;;;;5068743;28;20495;-60
2021/12/16 09:11:59;;;;;;;30.37;21.50;;;10.00;98.70;;;;;;5060913;28;20435;-58
2021/12/16 09:14:25;;;;;;;36.03;21.17;;;10.00;98.70;;;;;;5056775;28;21089;-58
2021/12/16 09:16:51;;;;;;;37.93;21.73;;;10.00;98.70;;;;;;5055292;28;20443;-59
2021/12/16 09:19:17;;;;;;;40.03;22.27;;;10.10;93.60;;;;;;5061910;28;20182;-58
2021/12/16 09:21:43;;;;;;;30.83;20.17;;;10.10;89.60;;;;;;5063651;28;20188;-57
2021/12/16 09:24:09;;;;;;;38.40;21.17;;;10.10;85.90;;;;;;5055314;28;20445;-58
2021/12/16 09:26:35;;;;;;;30.20;20.00;;;10.10;89.10;;;;;;5073512;28;20183;-60
2021/12/16 09:29:01;;;;;;;30.43;19.57;;;10.10;90.30;;;;;;5065532;28;20558;-59
2021/12/16 09:31:28;;;;;;;30.00;19.60;;;10.10;85.40;;;;;;5054234;28;20183;-60
2021/12/16 09:33:57;;;;;;;30.47;17.07;;;10.00;90.60;;;;;;5057779;28;20748;-60
2021/12/16 09:36:26;;;;;;;29.00;17.60;;;10.00;90.70;;;;;;5049717;28;20446;-59
2021/12/16 09:38:52;;;;;;;29.77;19.40;;;10.00;92.50;;;;;;5061942;28;20415;-58
2021/12/16 09:41:18;;;;;;;28.70;18.33;;;10.00;92.50;;;;;;5054760;28;20447;-58
2021/12/16 09:43:47;;;;;;;29.23;17.90;;;9.90;94.20;;;;;;5053017;28;20450;-58
2021/12/16 09:46:17;;;;;;;29.80;18.23;;;9.90;99.30;;;;;;5050345;28;20424;-58
2021/12/16 09:48:43;;;;;;;35.87;21.03;;;9.80;99.90;;;;;;5052686;28;20664;-57
2021/12/16 09:51:16;;;;;;;33.03;18.03;;;9.70;99.90;;;;;;5053395;28;20807;-58
2021/12/16 09:53:42;;;;;;;38.03;18.83;;;9.70;99.90;;;;;;5058202;28;20441;-58
2021/12/16 09:56:09;;;;;;;33.20;20.70;;;9.70;99.90;;;;;;5053575;28;20454;-60
2021/12/16 09:58:40;;;;;;;34.33;19.73;;;9.70;99.90;;;;;;5056294;28;20404;-58
2021/12/16 10:01:09;;;;;;;31.80;19.97;;;9.70;99.90;;;;;;5051965;28;20914;-59
2021/12/16 10:03:37;;;;;;;39.30;21.93;;;9.60;99.90;;;;;;5052461;28;20797;-59
2021/12/16 10:06:03;;;;;;;39.13;20.80;;;;;;;;;;5052747;28;20423;-59
2021/12/16 10:08:29;;;;;;;36.77;21.30;;;9.50;99.90;;;;;;5052234;28;20788;-60
2021/12/16 10:10:55;;;;;;;38.27;21.20;;;9.40;99.90;;;;;;5052543;28;21127;-59
2021/12/16 10:13:31;;;;;;;40.03;21.43;;;9.40;99.90;;;;;;5050527;28;20508;-59
2021/12/16 10:18:35;;;;;;;42.27;23.10;;;9.40;99.90;;;;;;5053619;28;20530;-61
2021/12/16 10:21:06;;;;;;;48.57;23.57;;;9.40;99.90;;;;;;5049977;28;20435;-61
2021/12/16 10:23:34;;;;;;;41.87;23.57;;;9.40;99.90;;;;;;5052599;28;20437;-59
2021/12/16 10:26:03;;;;;;;41.30;23.33;;;9.50;99.90;;;;;;5051802;28;20441;-58
2021/12/16 10:28:36;;;;;;;39.70;23.07;;;9.50;99.90;;;;;;5052165;28;20458;-59
2021/12/16 10:31:06;;;;;;;40.13;23.30;;;9.70;99.90;;;;;;5052427;28;20828;-60
2021/12/16 10:33:47;;;;;;;37.93;23.30;;;9.80;99.90;;;;;;5052101;28;20466;-59
2021/12/16 10:36:25;;;;;;;41.20;22.43;;;9.80;99.90;;;;;;5051664;28;20438;-58
2021/12/16 10:38:56;;;;;;;38.73;22.10;;;9.70;99.90;;;;;;5052163;28;20506;-59
2021/12/16 10:41:29;;;;;;;36.97;21.93;;;9.70;99.90;;;;;;5050983;28;20443;-60
2021/12/16 10:44:03;;;;;;;37.77;21.57;;;9.80;99.90;;;;;;5051704;28;20569;-59
2021/12/16 10:46:32;;;;;;;37.83;20.83;;;9.80;99.90;;;;;;5051746;28;20405;-60
2021/12/16 10:49:06;;;;;;;33.60;21.23;;;9.80;99.90;;;;;;5051788;28;20433;-59
2021/12/16 10:51:36;;;;;;;44.13;22.00;;;9.90;99.90;;;;;;5051912;28;20436;-60
2021/12/16 10:54:15;;;;;;;33.23;20.33;;;9.90;99.90;;;;;;5050228;28;20509;-61
2021/12/16 10:56:40;;;;;;;33.97;19.17;;;9.90;99.90;;;;;;5051227;28;20727;-61
2021/12/16 10:59:20;;;;;;;34.70;20.23;;;9.90;99.90;;;;;;5052773;28;20435;-62
2021/12/16 11:01:52;;;;;;;36.10;21.60;;;9.90;99.90;;;;;;5054373;28;20219;-60
2021/12/16 11:04:24;;;;;;;37.80;21.03;;;9.90;99.90;;;;;;5050646;28;20447;-61
2021/12/16 11:06:55;;;;;;;32.77;18.90;;;10.00;99.90;;;;;;5052731;28;20446;-60
2021/12/16 11:09:21;;;;;;;25.63;16.57;;;10.00;99.90;;;;;;5051764;28;20806;-62
2021/12/16 11:11:47;;;;;;;30.90;18.63;;;10.00;99.90;;;;;;5051221;28;20770;-60
2021/12/16 11:14:21;;;;;;;25.50;17.80;;;10.00;99.90;;;;;;5049341;28;20774;-60
2021/12/16 11:16:57;;;;;;;31.87;18.63;;;10.00;99.90;;;;;;5048456;28;20505;-60
2021/12/16 11:19:49;;;;;;;26.87;16.90;;;10.00;99.90;;;;;;5050587;28;20409;-62
2021/12/16 11:22:19;;;;;;;33.07;19.60;;;10.00;99.90;;;;;;5052507;28;20442;-59
2021/12/16 11:24:46;;;;;;;32.47;19.53;;;9.90;99.90;;;;;;5070584;28;20517;-59
2021/12/16 11:27:32;;;;;;;35.73;22.27;;;9.90;99.90;;;;;;5054677;28;20447;-59
2021/12/16 11:30:16;;;;;;;34.00;19.77;;;10.00;99.90;;;;;;5050163;28;20542;-59
2021/12/16 11:32:45;;;;;;;32.77;20.33;;;9.90;99.90;;;;;;5049461;28;20448;-62
2021/12/16 11:35:23;;;;;;;40.10;20.70;;;9.80;99.90;;;;;;5050750;28;20465;-60
2021/12/16 11:37:49;;;;;;;33.20;19.70;;;9.70;99.90;;;;;;5050613;28;20457;-60
2021/12/16 11:40:15;;;;;;;42.53;20.50;;;9.70;99.90;;;;;;5048828;28;20944;-60
2021/12/16 11:42:41;;;;;;;36.53;20.70;;;9.60;99.90;;;;;;5048773;28;20778;-59
2021/12/16 11:45:07;;;;;;;35.83;18.77;;;9.60;99.90;;;;;;5051770;28;20534;-60
2021/12/16 11:47:32;;;;;;;40.20;20.07;;;9.50;99.90;;;;;;5048486;28;20188;-61
2021/12/16 11:50:04;;;;;;;35.43;20.60;;;9.40;99.90;;;;;;5057271;28;20216;-60
2021/12/16 11:52:37;;;;;;;40.30;23.03;;;9.30;99.90;;;;;;5056293;28;20209;-60
2021/12/16 11:55:11;;;;;;;35.13;20.70;;;9.30;99.90;;;;;;5050557;28;20439;-60
2021/12/16 11:57:44;;;;;;;39.43;21.30;;;9.30;99.90;;;;;;5050192;28;20450;-58
2021/12/16 12:00:23;;;;;;;36.47;20.43;;;9.40;99.90;;;;;;5050052;28;20508;-62
2021/12/16 12:02:56;;;;;;;39.17;19.13;;;9.30;99.90;;;;;;5050223;28;20431;-60
2021/12/16 12:05:40;;;;;;;43.87;20.43;;;9.40;99.90;;;;;;5049920;28;20483;-59
2021/12/16 12:08:08;;;;;;;39.30;20.53;;;9.40;99.90;;;;;;5048027;28;20445;-61
2021/12/16 12:10:53;;;;;;;35.90;19.60;;;9.50;99.90;;;;;;5049738;28;20450;-60
2021/12/16 12:13:22;;;;;;;34.23;18.57;;;9.30;99.90;;;;;;5050248;28;20466;-60
2021/12/16 12:16:13;;;;;;;36.60;19.30;;;9.40;99.90;;;;;;5050234;28;21394;-62
2021/12/16 12:18:45;;;;;;;40.20;21.60;;;9.40;99.90;;;;;;5044513;28;20911;-60
2021/12/16 12:21:37;;;;;;;38.93;21.47;;;9.40;99.90;;;;;;5049392;28;20466;-62
2021/12/16 12:24:17;;;;;;;31.27;17.97;;;9.40;99.90;;;;;;5046695;28;20422;-60
2021/12/16 12:26:48;;;;;;;33.20;18.43;;;9.40;99.90;;;;;;5048454;28;20442;-59
2021/12/16 12:29:19;;;;;;;31.43;16.70;;;9.40;99.90;;;;;;5047951;28;20463;-59
2021/12/16 12:31:49;;;;;;;30.07;16.50;;;9.40;99.90;;;;;;5048052;28;20911;-59
2021/12/16 12:34:15;;;;;;;25.97;17.30;;;9.40;99.90;;;;;;5048411;28;20435;-59
2021/12/16 12:36:42;;;;;;;26.83;16.33;;;9.40;99.90;;;;;;5049711;28;20398;-61
2021/12/16 12:39:11;;;;;;;27.57;15.87;;;9.50;99.90;;;;;;5049856;28;20413;-60
2021/12/16 12:41:37;;;;;;;28.50;16.57;;;9.50;99.90;;;;;;5049757;28;20784;-59
2021/12/16 12:44:05;;;;;;;27.17;16.33;;;9.50;99.90;;;;;;5047615;28;20413;-60
2021/12/16 12:46:38;;;;;;;28.03;17.60;;;9.50;99.90;;;;;;5049734;28;20709;-59
2021/12/16 12:49:08;;;;;;;25.43;14.70;;;9.60;99.90;;;;;;5049789;28;20488;-59
2021/12/16 12:51:38;;;;;;;25.07;15.57;;;9.50;99.90;;;;;;5049802;28;20484;-60
2021/12/16 12:54:14;;;;;;;27.83;15.20;;;9.60;99.90;;;;;;5048264;28;20433;-59
2021/12/16 12:56:39;;;;;;;30.30;16.77;;;9.50;99.90;;;;;;5049495;28;20416;-59
2021/12/16 12:59:11;;;;;;;30.23;17.47;;;9.50;99.90;;;;;;5065025;28;20433;-60
2021/12/16 13:01:44;;;;;;;26.23;14.57;;;9.50;99.90;;;;;;5069520;28;20736;-59
2021/12/16 13:04:18;;;;;;;29.40;17.13;;;9.50;99.90;;;;;;5059402;28;20417;-60
2021/12/16 13:06:57;;;;;;;27.37;16.50;;;9.50;99.90;;;;;;5048506;28;20433;-62
2021/12/16 13:09:45;;;;;;;25.70;15.53;;;9.50;99.90;;;;;;5047552;28;20486;-60
2021/12/16 13:13:42;;;;;;;28.77;17.10;;;9.40;99.90;;;;;;5049265;28;20451;-59
2021/12/16 13:26:42;;;;;;;22.13;13.13;;;9.60;99.90;;;;;;5054328;28;20542;-59
2021/12/16 13:32:10;;;;;;;23.90;14.77;;;9.60;99.90;;;;;;5049606;28;20435;-60
2021/12/16 13:35:10;;;;;;;23.80;14.67;;;9.60;99.90;;;;;;5049885;28;20944;-61
2021/12/16 13:37:39;;;;;;;24.67;15.57;;;9.60;99.90;;;;;;5045722;28;20467;-60
2021/12/16 13:40:19;;;;;;;23.00;14.70;;;9.60;99.90;;;;;;5049423;28;20844;-60
2021/12/16 13:42:54;;;;;;;24.90;15.53;;;9.60;99.90;;;;;;5049654;28;21002;-59
2021/12/16 13:45:49;;;;;;;21.27;14.20;;;9.60;99.90;;;;;;5049011;28;20878;-59
2021/12/16 13:48:52;;;;;;;26.27;15.30;;;9.60;99.90;;;;;;5049451;28;20442;-59
2021/12/16 14:03:08;;;;;;;26.40;15.67;;;9.50;99.90;;;;;;5052558;28;20801;-59
2021/12/16 14:06:10;;;;;;;24.00;15.50;;;9.60;99.90;;;;;;5052768;28;20517;-60
2021/12/16 14:08:41;;;;;;;31.07;17.07;;;9.50;99.90;;;;;;5052590;28;20433;-60
2021/12/16 14:11:59;;;;;;;29.10;16.10;;;9.50;99.90;;;;;;5052694;28;20487;-59
2021/12/16 14:14:29;;;;;;;29.30;17.10;;;9.50;99.90;;;;;;5052238;28;20547;-60
2021/12/16 14:31:10;;;;;;;27.47;16.83;;;9.70;99.90;;;;;;5052563;28;20537;-60
2021/12/16 14:39:50;;;;;;;25.10;16.23;;;9.60;99.90;;;;;;5067173;28;20408;-59
2021/12/16 14:42:41;;;;;;;27.17;15.30;;;9.60;99.90;;;;;;5072521;28;20939;-61
2021/12/16 14:46:03;;;;;;;26.60;16.37;;;9.70;99.90;;;;;;5071946;28;20434;-60
2021/12/16 14:50:44;;;;;;;26.77;15.10;;;9.70;99.90;;;;;;5054861;28;20456;-61
2021/12/16 14:53:17;;;;;;;27.43;16.77;;;9.70;99.90;;;;;;5049081;28;20976;-59
2021/12/16 14:55:44;;;;;;;33.33;14.87;;;9.60;99.90;;;;;;5051260;28;20973;-62
2021/12/16 14:58:10;;;;;;;29.60;16.97;;;9.80;99.90;;;;;;5051632;28;20839;-61
2021/12/16 15:00:45;;;;;;;31.03;15.47;;;9.70;99.90;;;;;;5052161;28;20459;-60
2021/12/16 15:03:26;;;;;;;28.37;15.60;;;9.60;99.90;;;;;;5051967;28;20420;-61
2021/12/16 15:05:59;;;;;;;28.47;14.33;;;9.70;99.90;;;;;;5051522;28;20472;-60
2021/12/16 15:11:08;;;;;;;37.63;16.10;;;9.70;99.90;;;;;;5051699;28;20501;-59
2021/12/16 15:13:43;;;;;;;25.33;14.57;;;9.60;99.90;;;;;;5050485;28;20820;-59
2021/12/16 15:16:52;;;;;;;26.60;14.50;;;9.70;99.90;;;;;;5051882;28;20944;-61
2021/12/16 15:39:11;;;;;;;25.23;14.00;;;9.80;99.90;;;;;;5060380;28;20580;-61
2021/12/16 15:44:15;;;;;;;22.07;12.90;;;9.60;99.90;;;;;;5071365;28;20484;-60
2021/12/16 15:46:41;;;;;;;21.10;12.97;;;9.70;99.90;;;;;;5070882;28;20458;-60
2021/12/16 15:49:08;;;;;;;21.37;14.70;;;9.80;99.90;;;;;;5070793;28;20184;-60
2021/12/16 15:51:34;;;;;;;23.57;13.80;;;9.80;99.90;;;;;;5070516;28;20412;-60
2021/12/16 15:54:01;;;;;;;21.97;13.43;;;9.70;99.90;;;;;;5070688;28;21002;-60
2021/12/16 15:56:38;;;;;;;21.87;12.63;;;9.90;99.90;;;;;;5057334;28;20405;-59
2021/12/16 15:59:11;;;;;;;18.37;11.77;;;9.90;99.90;;;;;;5070418;28;20453;-60
2021/12/16 16:01:40;;;;;;;20.30;12.73;;;9.90;99.90;;;;;;5070569;28;20501;-60
2021/12/16 16:04:37;;;;;;;22.23;13.40;;;9.80;99.90;;;;;;5069892;28;20442;-60
2021/12/16 16:07:06;;;;;;;20.30;12.97;;;9.80;99.90;;;;;;5068158;28;20800;-59
2021/12/16 16:09:39;;;;;;;23.40;14.63;;;9.70;99.90;;;;;;5070313;28;20505;-60
2021/12/16 16:12:06;;;;;;;22.97;13.53;;;9.70;99.90;;;;;;5070271;28;20442;-60
2021/12/16 16:14:33;;;;;;;21.43;13.73;;;;;;;;;;5070495;28;20470;-61
2021/12/16 16:17:00;;;;;;;23.10;14.10;;;9.70;99.90;;;;;;5070806;28;20417;-60
2021/12/16 16:19:31;;;;;;;26.20;13.80;;;9.80;99.90;;;;;;5069148;28;20408;-60
2021/12/16 16:22:00;;;;;;;21.10;12.57;;;9.80;99.90;;;;;;5050920;28;20487;-60
2021/12/16 16:24:33;;;;;;;25.80;14.63;;;9.80;99.90;;;;;;5050090;28;20431;-60
2021/12/16 16:27:02;;;;;;;20.80;13.77;;;9.90;99.90;;;;;;5050356;28;20477;-60
2021/12/16 16:29:31;;;;;;;18.70;12.93;;;10.00;99.90;;;;;;5049966;28;20774;-61
2021/12/16 16:31:57;;;;;;;23.20;14.90;;;9.90;99.90;;;;;;5049708;28;20859;-60